sensor_id;sensor_type;location;lat;lon;timestamp;P1;durP1;ratioP1;P2;durP2;ratioP2
38797;SDS011;24546;52.240;16.826;2022-08-24T00:01:50;15.75;;;11.65;;
38797;SDS011;24546;52.240;16.826;2022-08-24T00:06:51;14.60;;;12.07;;
38797;SDS011;24546;52.240;16.826;2022-08-24T00:11:52;16.33;;;11.40;;
38797;SDS011;24546;52.240;16.826;2022-08-24T00:16:53;15.95;;;11.23;;
38797;SDS011;24546;52.240;16.826;2022-08-24T00:21:54;16.00;;;11.82;;
38797;SDS011;24546;52.240;16.826;2022-08-24T00:26:55;14.27;;;12.10;;
38797;SDS011;24546;52.240;16.826;2022-08-24T00:31:56;17.35;;;12.05;;
38797;SDS011;24546;52.240;16.826;2022-08-24T00:36:57;14.38;;;11.63;;
38797;SDS011;24546;52.240;16.826;2022-08-24T00:41:59;13.40;;;10.93;;
38797;SDS011;24546;52.240;16.826;2022-08-24T00:47:01;15.80;;;11.50;;
38797;SDS011;24546;52.240;16.826;2022-08-24T00:52:15;16.38;;;12.02;;
38797;SDS011;24546;52.240;16.826;2022-08-24T00:57:24;14.95;;;12.07;;
38797;SDS011;24546;52.240;16.826;2022-08-24T01:02:30;15.70;;;12.02;;
38797;SDS011;24546;52.240;16.826;2022-08-24T01:07:33;18.10;;;12.13;;
38797;SDS011;24546;52.240;16.826;2022-08-24T01:12:36;18.58;;;13.07;;
38797;SDS011;24546;52.240;16.826;2022-08-24T01:23:12;16.88;;;12.98;;
38797;SDS011;24546;52.240;16.826;2022-08-24T01:28:37;19.60;;;12.40;;
38797;SDS011;24546;52.240;16.826;2022-08-24T01:33:42;16.57;;;13.33;;
38797;SDS011;24546;52.240;16.826;2022-08-24T01:38:43;20.85;;;14.20;;
38797;SDS011;24546;52.240;16.826;2022-08-24T01:43:46;18.42;;;13.90;;
38797;SDS011;24546;52.240;16.826;2022-08-24T01:48:46;15.13;;;13.27;;
38797;SDS011;24546;52.240;16.826;2022-08-24T01:53:47;14.27;;;12.70;;
38797;SDS011;24546;52.240;16.826;2022-08-24T01:58:49;14.27;;;12.73;;
38797;SDS011;24546;52.240;16.826;2022-08-24T02:03:51;15.27;;;12.65;;
38797;SDS011;24546;52.240;16.826;2022-08-24T02:08:53;17.73;;;13.63;;
38797;SDS011;24546;52.240;16.826;2022-08-24T02:13:55;19.35;;;15.18;;
38797;SDS011;24546;52.240;16.826;2022-08-24T02:18:57;16.00;;;13.13;;
38797;SDS011;24546;52.240;16.826;2022-08-24T02:23:58;25.48;;;18.80;;
38797;SDS011;24546;52.240;16.826;2022-08-24T02:28:59;32.38;;;20.52;;
38797;SDS011;24546;52.240;16.826;2022-08-24T02:34:00;33.40;;;23.70;;
38797;SDS011;24546;52.240;16.826;2022-08-24T02:39:02;34.97;;;23.63;;
38797;SDS011;24546;52.240;16.826;2022-08-24T02:44:06;31.80;;;19.88;;
38797;SDS011;24546;52.240;16.826;2022-08-24T02:49:08;29.80;;;20.13;;
38797;SDS011;24546;52.240;16.826;2022-08-24T02:54:09;34.95;;;22.80;;
38797;SDS011;24546;52.240;16.826;2022-08-24T02:59:11;33.53;;;22.90;;
38797;SDS011;24546;52.240;16.826;2022-08-24T03:04:13;34.88;;;22.40;;
38797;SDS011;24546;52.240;16.826;2022-08-24T03:09:15;34.63;;;23.90;;
38797;SDS011;24546;52.240;16.826;2022-08-24T03:14:17;36.97;;;23.05;;
38797;SDS011;24546;52.240;16.826;2022-08-24T03:19:18;35.28;;;23.15;;
38797;SDS011;24546;52.240;16.826;2022-08-24T03:24:19;49.03;;;30.10;;
38797;SDS011;24546;52.240;16.826;2022-08-24T03:29:21;38.15;;;25.13;;
38797;SDS011;24546;52.240;16.826;2022-08-24T03:34:22;46.75;;;27.88;;
38797;SDS011;24546;52.240;16.826;2022-08-24T03:39:23;51.67;;;30.63;;
38797;SDS011;24546;52.240;16.826;2022-08-24T03:44:27;42.58;;;25.30;;
38797;SDS011;24546;52.240;16.826;2022-08-24T03:49:28;46.17;;;28.38;;
38797;SDS011;24546;52.240;16.826;2022-08-24T03:54:29;56.22;;;29.73;;
38797;SDS011;24546;52.240;16.826;2022-08-24T03:59:31;43.20;;;26.42;;
38797;SDS011;24546;52.240;16.826;2022-08-24T04:04:32;48.78;;;27.85;;
38797;SDS011;24546;52.240;16.826;2022-08-24T04:09:33;46.15;;;27.35;;
38797;SDS011;24546;52.240;16.826;2022-08-24T04:14:34;50.88;;;28.50;;
38797;SDS011;24546;52.240;16.826;2022-08-24T04:19:42;53.13;;;30.98;;
38797;SDS011;24546;52.240;16.826;2022-08-24T04:24:57;54.88;;;31.15;;
38797;SDS011;24546;52.240;16.826;2022-08-24T04:30:00;64.03;;;34.42;;
38797;SDS011;24546;52.240;16.826;2022-08-24T04:35:09;53.28;;;30.90;;
38797;SDS011;24546;52.240;16.826;2022-08-24T04:40:11;57.85;;;31.48;;
38797;SDS011;24546;52.240;16.826;2022-08-24T04:45:18;44.83;;;27.60;;
38797;SDS011;24546;52.240;16.826;2022-08-24T04:50:19;42.78;;;25.50;;
38797;SDS011;24546;52.240;16.826;2022-08-24T04:55:24;39.97;;;23.83;;
38797;SDS011;24546;52.240;16.826;2022-08-24T05:00:26;37.13;;;22.80;;
38797;SDS011;24546;52.240;16.826;2022-08-24T05:05:27;31.27;;;20.13;;
38797;SDS011;24546;52.240;16.826;2022-08-24T05:10:30;28.80;;;19.33;;
38797;SDS011;24546;52.240;16.826;2022-08-24T05:15:32;27.45;;;18.33;;
38797;SDS011;24546;52.240;16.826;2022-08-24T05:20:33;24.83;;;17.13;;
38797;SDS011;24546;52.240;16.826;2022-08-24T05:25:37;26.73;;;17.27;;
38797;SDS011;24546;52.240;16.826;2022-08-24T05:30:39;25.35;;;18.50;;
38797;SDS011;24546;52.240;16.826;2022-08-24T05:35:40;23.35;;;16.67;;
38797;SDS011;24546;52.240;16.826;2022-08-24T05:40:41;22.55;;;15.70;;
38797;SDS011;24546;52.240;16.826;2022-08-24T05:45:42;19.15;;;14.82;;
38797;SDS011;24546;52.240;16.826;2022-08-24T05:50:49;22.95;;;14.18;;
38797;SDS011;24546;52.240;16.826;2022-08-24T05:55:52;18.67;;;14.45;;
38797;SDS011;24546;52.240;16.826;2022-08-24T06:00:53;20.67;;;16.02;;
38797;SDS011;24546;52.240;16.826;2022-08-24T06:05:54;18.60;;;14.20;;
38797;SDS011;24546;52.240;16.826;2022-08-24T06:10:55;17.88;;;13.20;;
38797;SDS011;24546;52.240;16.826;2022-08-24T06:16:07;15.02;;;11.85;;
38797;SDS011;24546;52.240;16.826;2022-08-24T06:21:13;14.52;;;10.27;;
38797;SDS011;24546;52.240;16.826;2022-08-24T06:26:20;13.70;;;10.43;;
38797;SDS011;24546;52.240;16.826;2022-08-24T06:31:41;16.25;;;11.52;;
38797;SDS011;24546;52.240;16.826;2022-08-24T06:36:44;14.63;;;11.43;;
38797;SDS011;24546;52.240;16.826;2022-08-24T06:41:46;20.15;;;13.15;;
38797;SDS011;24546;52.240;16.826;2022-08-24T06:46:53;19.35;;;15.18;;
38797;SDS011;24546;52.240;16.826;2022-08-24T06:51:54;17.75;;;13.85;;
38797;SDS011;24546;52.240;16.826;2022-08-24T06:56:56;16.20;;;12.73;;
38797;SDS011;24546;52.240;16.826;2022-08-24T07:01:58;13.15;;;11.70;;
38797;SDS011;24546;52.240;16.826;2022-08-24T07:07:01;15.05;;;12.35;;
38797;SDS011;24546;52.240;16.826;2022-08-24T07:12:03;21.25;;;12.05;;
38797;SDS011;24546;52.240;16.826;2022-08-24T07:17:04;15.30;;;13.70;;
38797;SDS011;24546;52.240;16.826;2022-08-24T07:22:06;16.55;;;13.30;;
38797;SDS011;24546;52.240;16.826;2022-08-24T07:27:07;16.00;;;13.20;;
38797;SDS011;24546;52.240;16.826;2022-08-24T07:32:08;16.35;;;13.35;;
38797;SDS011;24546;52.240;16.826;2022-08-24T07:37:12;16.10;;;12.48;;
38797;SDS011;24546;52.240;16.826;2022-08-24T07:42:16;17.30;;;12.85;;
38797;SDS011;24546;52.240;16.826;2022-08-24T07:47:18;15.45;;;12.35;;
38797;SDS011;24546;52.240;16.826;2022-08-24T07:52:19;14.55;;;12.18;;
38797;SDS011;24546;52.240;16.826;2022-08-24T07:57:20;13.85;;;11.85;;
38797;SDS011;24546;52.240;16.826;2022-08-24T08:02:21;11.00;;;9.75;;
38797;SDS011;24546;52.240;16.826;2022-08-24T08:07:25;12.27;;;9.75;;
38797;SDS011;24546;52.240;16.826;2022-08-24T08:12:26;11.30;;;9.25;;
38797;SDS011;24546;52.240;16.826;2022-08-24T08:17:29;11.65;;;8.73;;
38797;SDS011;24546;52.240;16.826;2022-08-24T08:22:30;11.02;;;9.73;;
38797;SDS011;24546;52.240;16.826;2022-08-24T08:28:16;10.77;;;9.20;;
38797;SDS011;24546;52.240;16.826;2022-08-24T08:33:18;10.98;;;8.18;;
38797;SDS011;24546;52.240;16.826;2022-08-24T08:38:19;12.07;;;10.55;;
38797;SDS011;24546;52.240;16.826;2022-08-24T08:48:49;10.63;;;9.27;;
38797;SDS011;24546;52.240;16.826;2022-08-24T09:26:06;9.68;;;7.15;;
38797;SDS011;24546;52.240;16.826;2022-08-24T09:31:43;8.77;;;7.20;;
38797;SDS011;24546;52.240;16.826;2022-08-24T09:36:53;10.40;;;6.70;;
38797;SDS011;24546;52.240;16.826;2022-08-24T09:42:09;7.63;;;6.30;;
38797;SDS011;24546;52.240;16.826;2022-08-24T10:48:03;8.55;;;5.85;;
38797;SDS011;24546;52.240;16.826;2022-08-24T11:09:08;7.18;;;5.38;;
38797;SDS011;24546;52.240;16.826;2022-08-24T11:19:29;6.82;;;5.40;;
38797;SDS011;24546;52.240;16.826;2022-08-24T11:24:40;6.68;;;5.03;;
38797;SDS011;24546;52.240;16.826;2022-08-24T11:34:51;9.48;;;5.70;;
38797;SDS011;24546;52.240;16.826;2022-08-24T11:39:52;9.20;;;5.95;;
38797;SDS011;24546;52.240;16.826;2022-08-24T11:49:59;8.88;;;5.70;;
38797;SDS011;24546;52.240;16.826;2022-08-24T12:00:32;10.98;;;6.03;;
38797;SDS011;24546;52.240;16.826;2022-08-24T12:05:49;9.02;;;5.57;;
38797;SDS011;24546;52.240;16.826;2022-08-24T12:11:44;33.10;;;6.80;;
38797;SDS011;24546;52.240;16.826;2022-08-24T12:22:05;12.98;;;5.38;;
38797;SDS011;24546;52.240;16.826;2022-08-24T12:32:30;10.23;;;5.85;;
38797;SDS011;24546;52.240;16.826;2022-08-24T12:37:42;9.43;;;6.45;;
38797;SDS011;24546;52.240;16.826;2022-08-24T12:58:39;11.02;;;5.22;;
38797;SDS011;24546;52.240;16.826;2022-08-24T13:09:36;11.55;;;5.15;;
38797;SDS011;24546;52.240;16.826;2022-08-24T13:14:40;13.77;;;6.18;;
38797;SDS011;24546;52.240;16.826;2022-08-24T13:20:13;10.82;;;5.50;;
38797;SDS011;24546;52.240;16.826;2022-08-24T13:25:24;11.50;;;5.80;;
38797;SDS011;24546;52.240;16.826;2022-08-24T13:30:50;7.18;;;5.10;;
38797;SDS011;24546;52.240;16.826;2022-08-24T13:36:00;12.88;;;5.43;;
38797;SDS011;24546;52.240;16.826;2022-08-24T13:41:08;10.70;;;5.85;;
38797;SDS011;24546;52.240;16.826;2022-08-24T14:17:41;10.30;;;5.43;;
38797;SDS011;24546;52.240;16.826;2022-08-24T14:28:26;10.20;;;5.53;;
38797;SDS011;24546;52.240;16.826;2022-08-24T14:34:25;12.47;;;5.47;;
38797;SDS011;24546;52.240;16.826;2022-08-24T14:39:11;12.93;;;6.10;;
38797;SDS011;24546;52.240;16.826;2022-08-24T15:00:04;10.57;;;5.95;;
38797;SDS011;24546;52.240;16.826;2022-08-24T15:16:00;10.35;;;6.85;;
38797;SDS011;24546;52.240;16.826;2022-08-24T15:21:07;12.48;;;6.68;;
38797;SDS011;24546;52.240;16.826;2022-08-24T15:31:23;9.27;;;5.72;;
38797;SDS011;24546;52.240;16.826;2022-08-24T15:36:27;14.60;;;6.60;;
38797;SDS011;24546;52.240;16.826;2022-08-24T15:46:38;10.63;;;6.40;;
38797;SDS011;24546;52.240;16.826;2022-08-24T15:51:48;11.43;;;6.63;;
38797;SDS011;24546;52.240;16.826;2022-08-24T15:56:53;11.15;;;6.93;;
38797;SDS011;24546;52.240;16.826;2022-08-24T16:07:32;12.35;;;7.13;;
38797;SDS011;24546;52.240;16.826;2022-08-24T16:13:04;12.00;;;7.13;;
38797;SDS011;24546;52.240;16.826;2022-08-24T16:18:07;13.60;;;7.72;;
38797;SDS011;24546;52.240;16.826;2022-08-24T16:23:28;12.45;;;8.02;;
38797;SDS011;24546;52.240;16.826;2022-08-24T16:28:32;11.90;;;8.00;;
38797;SDS011;24546;52.240;16.826;2022-08-24T16:38:38;11.65;;;7.72;;
38797;SDS011;24546;52.240;16.826;2022-08-24T16:43:41;11.82;;;8.00;;
38797;SDS011;24546;52.240;16.826;2022-08-24T16:48:42;14.05;;;8.65;;
38797;SDS011;24546;52.240;16.826;2022-08-24T16:53:43;13.18;;;8.65;;
38797;SDS011;24546;52.240;16.826;2022-08-24T16:58:45;13.88;;;9.40;;
38797;SDS011;24546;52.240;16.826;2022-08-24T17:03:47;11.20;;;8.25;;
38797;SDS011;24546;52.240;16.826;2022-08-24T17:08:48;14.02;;;9.07;;
38797;SDS011;24546;52.240;16.826;2022-08-24T17:13:49;14.25;;;8.90;;
38797;SDS011;24546;52.240;16.826;2022-08-24T17:18:50;14.10;;;9.35;;
38797;SDS011;24546;52.240;16.826;2022-08-24T17:23:51;13.15;;;9.60;;
38797;SDS011;24546;52.240;16.826;2022-08-24T17:28:52;15.18;;;9.18;;
38797;SDS011;24546;52.240;16.826;2022-08-24T17:33:56;14.38;;;9.10;;
38797;SDS011;24546;52.240;16.826;2022-08-24T17:38:58;15.68;;;9.15;;
38797;SDS011;24546;52.240;16.826;2022-08-24T17:44:01;17.75;;;10.43;;
38797;SDS011;24546;52.240;16.826;2022-08-24T17:49:02;14.65;;;9.15;;
38797;SDS011;24546;52.240;16.826;2022-08-24T17:54:03;13.30;;;9.23;;
38797;SDS011;24546;52.240;16.826;2022-08-24T17:59:05;14.82;;;9.73;;
38797;SDS011;24546;52.240;16.826;2022-08-24T18:04:23;17.23;;;9.15;;
38797;SDS011;24546;52.240;16.826;2022-08-24T18:09:33;16.88;;;11.20;;
38797;SDS011;24546;52.240;16.826;2022-08-24T18:14:37;19.40;;;10.38;;
38797;SDS011;24546;52.240;16.826;2022-08-24T18:19:38;15.27;;;10.65;;
38797;SDS011;24546;52.240;16.826;2022-08-24T18:24:40;18.02;;;10.68;;
38797;SDS011;24546;52.240;16.826;2022-08-24T18:29:42;20.45;;;11.13;;
38797;SDS011;24546;52.240;16.826;2022-08-24T18:34:44;14.02;;;10.15;;
38797;SDS011;24546;52.240;16.826;2022-08-24T18:39:45;17.05;;;10.57;;
38797;SDS011;24546;52.240;16.826;2022-08-24T18:44:46;19.13;;;11.02;;
38797;SDS011;24546;52.240;16.826;2022-08-24T18:49:47;16.40;;;10.05;;
38797;SDS011;24546;52.240;16.826;2022-08-24T18:54:48;17.20;;;11.02;;
38797;SDS011;24546;52.240;16.826;2022-08-24T18:59:50;21.80;;;12.10;;
38797;SDS011;24546;52.240;16.826;2022-08-24T19:04:50;16.23;;;10.77;;
38797;SDS011;24546;52.240;16.826;2022-08-24T19:09:52;18.45;;;12.00;;
38797;SDS011;24546;52.240;16.826;2022-08-24T19:14:54;14.90;;;10.95;;
38797;SDS011;24546;52.240;16.826;2022-08-24T19:19:57;18.02;;;11.52;;
38797;SDS011;24546;52.240;16.826;2022-08-24T19:24:58;14.85;;;11.18;;
38797;SDS011;24546;52.240;16.826;2022-08-24T19:29:59;13.07;;;10.45;;
38797;SDS011;24546;52.240;16.826;2022-08-24T19:35:00;19.10;;;10.80;;
38797;SDS011;24546;52.240;16.826;2022-08-24T19:40:02;20.80;;;11.45;;
38797;SDS011;24546;52.240;16.826;2022-08-24T19:45:03;16.42;;;11.95;;
38797;SDS011;24546;52.240;16.826;2022-08-24T19:50:23;20.73;;;12.00;;
38797;SDS011;24546;52.240;16.826;2022-08-24T19:55:24;17.20;;;11.43;;
38797;SDS011;24546;52.240;16.826;2022-08-24T20:00:36;16.17;;;10.75;;
38797;SDS011;24546;52.240;16.826;2022-08-24T20:05:42;15.85;;;11.57;;
38797;SDS011;24546;52.240;16.826;2022-08-24T20:10:43;18.42;;;12.50;;
38797;SDS011;24546;52.240;16.826;2022-08-24T20:15:44;20.50;;;12.18;;
38797;SDS011;24546;52.240;16.826;2022-08-24T20:20:45;18.92;;;11.88;;
38797;SDS011;24546;52.240;16.826;2022-08-24T20:25:46;13.90;;;11.68;;
38797;SDS011;24546;52.240;16.826;2022-08-24T20:30:47;18.65;;;12.05;;
38797;SDS011;24546;52.240;16.826;2022-08-24T20:35:48;17.88;;;12.10;;
38797;SDS011;24546;52.240;16.826;2022-08-24T20:40:50;15.27;;;11.55;;
38797;SDS011;24546;52.240;16.826;2022-08-24T20:45:53;21.67;;;13.00;;
38797;SDS011;24546;52.240;16.826;2022-08-24T20:50:55;16.17;;;11.18;;
38797;SDS011;24546;52.240;16.826;2022-08-24T20:55:57;17.58;;;12.57;;
38797;SDS011;24546;52.240;16.826;2022-08-24T21:01:00;16.48;;;12.10;;
38797;SDS011;24546;52.240;16.826;2022-08-24T21:06:02;18.48;;;11.90;;
38797;SDS011;24546;52.240;16.826;2022-08-24T21:11:04;19.73;;;12.73;;
38797;SDS011;24546;52.240;16.826;2022-08-24T21:16:06;15.85;;;12.13;;
38797;SDS011;24546;52.240;16.826;2022-08-24T21:21:09;21.75;;;13.23;;
38797;SDS011;24546;52.240;16.826;2022-08-24T21:26:11;12.95;;;11.00;;
38797;SDS011;24546;52.240;16.826;2022-08-24T21:31:14;15.68;;;11.05;;
38797;SDS011;24546;52.240;16.826;2022-08-24T21:36:15;16.92;;;11.55;;
38797;SDS011;24546;52.240;16.826;2022-08-24T21:41:17;16.77;;;11.27;;
38797;SDS011;24546;52.240;16.826;2022-08-24T21:46:18;20.88;;;11.00;;
38797;SDS011;24546;52.240;16.826;2022-08-24T21:51:20;14.57;;;11.07;;
38797;SDS011;24546;52.240;16.826;2022-08-24T21:56:21;16.05;;;11.45;;
38797;SDS011;24546;52.240;16.826;2022-08-24T22:01:24;23.67;;;13.02;;
38797;SDS011;24546;52.240;16.826;2022-08-24T22:06:25;14.68;;;11.48;;
38797;SDS011;24546;52.240;16.826;2022-08-24T22:11:26;17.15;;;11.70;;
38797;SDS011;24546;52.240;16.826;2022-08-24T22:16:28;13.80;;;11.40;;
38797;SDS011;24546;52.240;16.826;2022-08-24T22:21:29;15.10;;;12.23;;
38797;SDS011;24546;52.240;16.826;2022-08-24T22:26:31;14.88;;;11.32;;
38797;SDS011;24546;52.240;16.826;2022-08-24T22:31:34;17.15;;;12.15;;
38797;SDS011;24546;52.240;16.826;2022-08-24T22:36:37;16.17;;;11.88;;
38797;SDS011;24546;52.240;16.826;2022-08-24T22:41:39;17.58;;;11.32;;
38797;SDS011;24546;52.240;16.826;2022-08-24T22:46:41;16.92;;;12.68;;
38797;SDS011;24546;52.240;16.826;2022-08-24T22:51:42;13.43;;;11.60;;
38797;SDS011;24546;52.240;16.826;2022-08-24T22:56:44;15.23;;;13.35;;
38797;SDS011;24546;52.240;16.826;2022-08-24T23:01:47;17.20;;;13.15;;
38797;SDS011;24546;52.240;16.826;2022-08-24T23:06:49;18.83;;;13.20;;
38797;SDS011;24546;52.240;16.826;2022-08-24T23:11:51;17.65;;;13.30;;
38797;SDS011;24546;52.240;16.826;2022-08-24T23:16:52;17.23;;;12.93;;
38797;SDS011;24546;52.240;16.826;2022-08-24T23:21:53;18.20;;;12.38;;
38797;SDS011;24546;52.240;16.826;2022-08-24T23:26:54;16.92;;;13.10;;
38797;SDS011;24546;52.240;16.826;2022-08-24T23:31:56;25.65;;;13.52;;
38797;SDS011;24546;52.240;16.826;2022-08-24T23:36:57;17.48;;;12.48;;
38797;SDS011;24546;52.240;16.826;2022-08-24T23:41:58;16.60;;;11.52;;
38797;SDS011;24546;52.240;16.826;2022-08-24T23:46:59;19.77;;;12.95;;
38797;SDS011;24546;52.240;16.826;2022-08-24T23:52:00;25.13;;;12.75;;
38797;SDS011;24546;52.240;16.826;2022-08-24T23:57:02;18.33;;;12.70;;
